Time;durP1;ratioP1;P1;durP2;ratioP2;P2;SDS_P1;SDS_P2;PMS_P1;PMS_P2;Temp;Humidity;BMP_temperature;BMP_pressure;BME280_temperature;BME280_humidity;BME280_pressure;Samples;Min_cycle;Max_cycle;Signal;HPM_P1;HPM_P2
2023/02/22 00:00:43;;;;;;;31.60;21.52;;;10.60;99.90;;;;;;5101793;28;20373;-53
2023/02/22 00:03:14;;;;;;;26.25;19.30;;;10.40;99.90;;;;;;5103285;28;20372;-53
2023/02/22 00:05:44;;;;;;;26.88;19.05;;;10.40;99.90;;;;;;5103274;28;20479;-53
2023/02/22 00:08:10;;;;;;;29.30;20.23;;;10.30;99.90;;;;;;5102564;28;20480;-53
2023/02/22 00:10:39;;;;;;;26.73;19.33;;;10.30;99.90;;;;;;5101528;28;20051;-52
2023/02/22 00:13:07;;;;;;;27.35;19.92;;;10.20;99.90;;;;;;5103162;28;20043;-53
2023/02/22 00:15:34;;;;;;;32.67;22.77;;;10.20;99.90;;;;;;5074246;28;20063;-53
2023/02/22 00:18:00;;;;;;;30.73;22.05;;;10.20;99.90;;;;;;5103164;28;20122;-53
2023/02/22 00:20:46;;;;;;;30.48;21.02;;;10.30;99.90;;;;;;5123766;27;20514;-53
2023/02/22 00:23:18;;;;;;;31.70;22.38;;;10.30;99.90;;;;;;5102048;28;20173;-53
2023/02/22 00:25:44;;;;;;;37.58;22.50;;;10.20;99.90;;;;;;5105378;28;20047;-54
2023/02/22 00:28:10;;;;;;;29.73;22.30;;;10.30;99.90;;;;;;5102201;28;20038;-53
2023/02/22 00:30:36;;;;;;;32.13;24.60;;;10.40;99.90;;;;;;5094103;28;20028;-54
2023/02/22 00:33:02;;;;;;;36.70;24.88;;;10.30;99.90;;;;;;5101250;28;20101;-53
2023/02/22 00:35:29;;;;;;;33.53;24.38;;;10.40;99.90;;;;;;5081540;28;20047;-54
2023/02/22 00:37:58;;;;;;;37.55;25.75;;;10.40;99.90;;;;;;5080119;28;20089;-53
2023/02/22 00:40:26;;;;;;;32.17;25.30;;;10.50;99.90;;;;;;5082731;28;20040;-55
2023/02/22 00:42:52;;;;;;;32.15;23.10;;;10.60;99.90;;;;;;5082383;28;20134;-53
2023/02/22 00:45:24;;;;;;;30.77;23.20;;;10.50;99.90;;;;;;5071451;28;20531;-53
2023/02/22 00:47:50;;;;;;;31.63;23.85;;;10.50;99.90;;;;;;5084370;28;20563;-53
2023/02/22 00:50:17;;;;;;;28.85;21.63;;;10.60;99.90;;;;;;5060266;28;20040;-54
2023/02/22 00:52:43;;;;;;;34.17;22.70;;;10.60;99.90;;;;;;5080057;28;20073;-53
2023/02/22 00:55:14;;;;;;;34.67;21.73;;;10.50;99.90;;;;;;5098667;28;20143;-53
2023/02/22 00:57:40;;;;;;;28.90;20.50;;;10.50;99.90;;;;;;5100941;28;20047;-54
2023/02/22 01:00:13;;;;;;;27.63;19.27;;;10.50;99.90;;;;;;5100034;28;20060;-53
2023/02/22 01:02:41;;;;;;;27.65;19.90;;;10.50;99.90;;;;;;5102521;28;20032;-53
2023/02/22 01:05:11;;;;;;;27.67;18.55;;;10.50;99.90;;;;;;5101887;28;20040;-53
2023/02/22 01:07:37;;;;;;;26.92;19.00;;;10.40;99.90;;;;;;5094915;28;20036;-53
2023/02/22 01:10:05;;;;;;;26.55;18.67;;;10.50;99.90;;;;;;5100613;28;20036;-53
2023/02/22 01:12:31;;;;;;;29.88;19.80;;;10.50;99.90;;;;;;5109872;28;20036;-53
2023/02/22 01:14:57;;;;;;;26.98;20.00;;;10.50;99.90;;;;;;5127451;27;20482;-53
2023/02/22 01:17:26;;;;;;;27.55;18.77;;;10.50;99.90;;;;;;5115282;27;20081;-53
2023/02/22 01:19:52;;;;;;;30.02;19.52;;;10.60;99.90;;;;;;5124893;28;20028;-53
2023/02/22 01:22:20;;;;;;;27.27;17.85;;;10.60;99.90;;;;;;5115871;28;20104;-54
2023/02/22 01:24:47;;;;;;;26.65;18.50;;;10.60;99.90;;;;;;5124797;28;20019;-53
2023/02/22 01:27:13;;;;;;;30.05;21.30;;;10.70;99.90;;;;;;5124715;28;20425;-53
2023/02/22 01:29:40;;;;;;;29.23;20.52;;;10.70;99.90;;;;;;5122628;28;20042;-53
2023/02/22 01:32:06;;;;;;;30.30;21.13;;;10.50;99.90;;;;;;5116073;28;20139;-53
2023/02/22 01:34:32;;;;;;;39.58;23.30;;;10.60;99.90;;;;;;5124177;28;20488;-53
2023/02/22 01:37:00;;;;;;;32.80;21.00;;;10.50;99.90;;;;;;5122387;27;20032;-53
2023/02/22 01:39:26;;;;;;;29.83;20.85;;;10.50;99.90;;;;;;5121933;28;20486;-53
2023/02/22 01:41:52;;;;;;;35.47;22.33;;;10.50;99.90;;;;;;5122737;27;20425;-53
2023/02/22 01:44:28;;;;;;;36.17;23.15;;;10.50;99.90;;;;;;5118198;27;20023;-53
2023/02/22 01:46:55;;;;;;;33.50;22.90;;;10.40;99.90;;;;;;5125011;27;20122;-53
2023/02/22 01:49:28;;;;;;;32.63;22.95;;;10.30;99.90;;;;;;5127039;27;20473;-53
2023/02/22 01:51:57;;;;;;;32.85;22.50;;;10.20;99.90;;;;;;5126292;27;20027;-53
2023/02/22 01:54:42;;;;;;;42.55;26.92;;;10.00;99.90;;;;;;5126046;27;20042;-54
2023/02/22 01:57:34;;;;;;;35.03;22.00;;;9.70;99.90;;;;;;5107223;27;20061;-53
2023/02/22 02:00:09;;;;;;;31.38;21.35;;;9.60;99.90;;;;;;5117852;27;20101;-53
2023/02/22 02:02:40;;;;;;;30.65;20.38;;;9.70;99.90;;;;;;5101140;28;20040;-53
2023/02/22 02:05:07;;;;;;;23.88;17.58;;;9.60;99.90;;;;;;5102514;28;20407;-53
2023/02/22 02:07:36;;;;;;;25.15;17.60;;;9.70;99.90;;;;;;5107980;28;20048;-53
2023/02/22 02:10:13;;;;;;;26.33;18.02;;;9.70;99.90;;;;;;5103562;28;20440;-53
2023/02/22 02:12:44;;;;;;;25.35;16.95;;;9.70;99.90;;;;;;5069393;28;20047;-53
2023/02/22 02:15:27;;;;;;;22.23;15.65;;;9.60;99.90;;;;;;5097438;28;20034;-52
2023/02/22 02:17:56;;;;;;;20.33;14.18;;;9.50;99.90;;;;;;5110445;28;20052;-54
2023/02/22 02:21:00;;;;;;;17.52;12.60;;;9.50;99.90;;;;;;5105160;28;20040;-53
2023/02/22 02:23:58;;;;;;;20.27;13.35;;;9.50;99.90;;;;;;5042874;28;20048;-54
2023/02/22 02:26:42;;;;;;;20.38;15.00;;;9.50;99.90;;;;;;5020383;28;20061;-54
2023/02/22 02:29:25;;;;;;;23.40;15.15;;;9.50;99.90;;;;;;5047298;28;20046;-53
2023/02/22 02:31:53;;;;;;;20.63;14.75;;;9.40;99.90;;;;;;5042645;28;20045;-53
2023/02/22 02:34:34;;;;;;;20.20;14.65;;;9.40;99.90;;;;;;5042628;28;20573;-53
2023/02/22 02:37:10;;;;;;;23.80;15.98;;;9.40;99.90;;;;;;5042535;28;20048;-53
2023/02/22 02:39:42;;;;;;;23.10;15.23;;;9.30;99.90;;;;;;5046994;28;20079;-54
2023/02/22 02:42:14;;;;;;;23.05;14.38;;;9.30;99.90;;;;;;5063327;28;20024;-52
2023/02/22 02:44:43;;;;;;;21.00;15.00;;;9.40;99.90;;;;;;5064491;28;20039;-53
2023/02/22 02:47:19;;;;;;;19.05;13.38;;;9.40;99.90;;;;;;5066961;28;20040;-52
2023/02/22 02:50:08;;;;;;;20.67;13.10;;;9.40;99.90;;;;;;5052858;28;20032;-53
2023/02/22 02:52:36;;;;;;;18.02;12.82;;;9.30;99.90;;;;;;4996786;28;20040;-52
2023/02/22 02:55:05;;;;;;;16.90;12.57;;;9.30;99.90;;;;;;5007186;28;20124;-53
2023/02/22 02:57:31;;;;;;;18.63;13.32;;;9.30;99.90;;;;;;5002537;28;20081;-53
2023/02/22 02:59:56;;;;;;;20.33;12.50;;;9.40;99.90;;;;;;5002942;28;20401;-53
2023/02/22 03:03:05;;;;;;;19.20;13.70;;;9.40;99.90;;;;;;5061956;28;20029;-53
2023/02/22 03:05:37;;;;;;;17.55;12.23;;;9.40;99.90;;;;;;5063193;28;20033;-54
2023/02/22 03:08:19;;;;;;;20.38;12.55;;;9.50;99.90;;;;;;5062110;28;20033;-53
2023/02/22 03:11:00;;;;;;;21.65;13.63;;;9.50;99.90;;;;;;5066298;28;20032;-53
2023/02/22 03:13:39;;;;;;;18.08;13.38;;;9.50;99.90;;;;;;5061895;28;20072;-53
2023/02/22 03:16:43;;;;;;;20.42;13.75;;;9.40;99.90;;;;;;5058711;28;20434;-53
2023/02/22 03:19:21;;;;;;;24.80;15.48;;;9.50;99.90;;;;;;5027573;28;20184;-52
2023/02/22 03:21:56;;;;;;;19.42;12.90;;;9.60;99.90;;;;;;5023740;28;20103;-53
2023/02/22 03:24:31;;;;;;;21.08;14.70;;;9.70;99.90;;;;;;4988099;28;20065;-53
2023/02/22 03:27:08;;;;;;;19.02;13.93;;;9.80;99.90;;;;;;5022257;28;20041;-53
2023/02/22 03:29:39;;;;;;;19.27;13.32;;;9.80;99.90;;;;;;5032367;28;20444;-53
2023/02/22 03:32:13;;;;;;;18.88;13.40;;;9.90;99.90;;;;;;5044129;28;20112;-53
2023/02/22 03:34:49;;;;;;;18.75;13.75;;;9.80;99.90;;;;;;5044283;28;20132;-53
2023/02/22 03:37:21;;;;;;;23.77;15.48;;;9.70;99.90;;;;;;5044330;28;20049;-53
2023/02/22 03:39:51;;;;;;;22.90;16.15;;;9.60;99.90;;;;;;5034721;28;20591;-53
2023/02/22 03:42:24;;;;;;;50.45;23.42;;;9.60;99.90;;;;;;5043465;28;20037;-54
2023/02/22 03:44:54;;;;;;;46.55;21.60;;;9.50;99.90;;;;;;5041124;28;20025;-53
2023/02/22 03:47:29;;;;;;;37.72;20.00;;;9.40;99.90;;;;;;5043131;28;20041;-55
2023/02/22 03:50:05;;;;;;;40.78;20.25;;;9.50;99.90;;;;;;5034521;28;20021;-52
2023/02/22 03:52:33;;;;;;;44.03;21.95;;;9.40;99.90;;;;;;5043120;28;20446;-53
2023/02/22 03:55:00;;;;;;;37.20;20.02;;;9.40;99.90;;;;;;5070394;28;20484;-53
2023/02/22 03:57:31;;;;;;;35.55;19.60;;;9.30;99.90;;;;;;5091342;28;20170;-53
2023/02/22 03:59:57;;;;;;;34.20;20.13;;;9.20;99.90;;;;;;5086054;28;20126;-53
2023/02/22 04:02:23;;;;;;;36.15;23.33;;;9.10;99.90;;;;;;5091936;28;20094;-55
2023/02/22 04:04:49;;;;;;;27.00;20.23;;;;;;;;;;5091600;28;20059;-53
2023/02/22 04:07:16;;;;;;;29.15;19.50;;;9.20;99.90;;;;;;5091385;28;20060;-53
2023/02/22 04:09:41;;;;;;;26.33;18.88;;;9.30;99.90;;;;;;5090946;28;20491;-53
2023/02/22 04:12:07;;;;;;;41.00;28.73;;;9.30;99.90;;;;;;5089591;28;20066;-53
2023/02/22 04:14:33;;;;;;;32.60;23.60;;;9.20;99.90;;;;;;5091231;28;20051;-53
2023/02/22 04:16:59;;;;;;;29.17;21.38;;;9.20;99.90;;;;;;5073842;28;20499;-56
2023/02/22 04:19:25;;;;;;;35.03;24.48;;;9.20;99.90;;;;;;5091509;28;20028;-53
2023/02/22 04:21:50;;;;;;;67.45;46.25;;;9.10;99.90;;;;;;5091225;28;20571;-53
2023/02/22 04:24:16;;;;;;;49.90;32.75;;;9.10;99.90;;;;;;5082332;28;20043;-53
2023/02/22 04:26:42;;;;;;;44.38;31.25;;;9.00;99.90;;;;;;5119984;27;20389;-54
2023/02/22 04:29:08;;;;;;;45.58;28.02;;;9.10;99.90;;;;;;5115578;27;20066;-53
2023/02/22 04:31:34;;;;;;;44.58;29.73;;;;;;;;;;5125661;27;20027;-54
2023/02/22 04:34:02;;;;;;;37.30;27.98;;;;;;;;;;5121652;27;20039;-54
2023/02/22 04:36:30;;;;;;;38.53;24.55;;;;;;;;;;5120562;27;20064;-54
2023/02/22 04:38:57;;;;;;;45.13;24.23;;;8.80;99.90;;;;;;5121083;27;20047;-54
2023/02/22 04:41:23;;;;;;;38.78;25.35;;;8.70;99.90;;;;;;5121150;27;20489;-55
2023/02/22 04:43:48;;;;;;;33.80;21.67;;;8.70;99.90;;;;;;5084928;28;20103;-54
2023/02/22 04:46:15;;;;;;;49.95;24.48;;;8.60;99.90;;;;;;5117527;27;20035;-54
2023/02/22 04:48:40;;;;;;;41.15;25.80;;;8.70;99.90;;;;;;5117155;27;20058;-54
2023/02/22 04:51:07;;;;;;;44.10;26.13;;;8.60;99.90;;;;;;5123100;27;20494;-53
2023/02/22 04:53:33;;;;;;;37.78;26.00;;;8.60;99.90;;;;;;5121288;27;20125;-55
2023/02/22 04:55:59;;;;;;;43.08;25.05;;;8.60;99.90;;;;;;5115429;27;20051;-54
2023/02/22 04:58:24;;;;;;;37.35;22.38;;;8.50;99.90;;;;;;5122765;27;20070;-54
2023/02/22 05:00:50;;;;;;;31.75;19.13;;;8.60;99.90;;;;;;5121477;27;20055;-54
2023/02/22 05:03:16;;;;;;;37.95;22.38;;;8.60;99.90;;;;;;5121698;27;20023;-54
2023/02/22 05:05:42;;;;;;;34.15;21.17;;;8.60;99.90;;;;;;5115576;28;20039;-54
2023/02/22 05:08:07;;;;;;;32.38;21.65;;;8.60;99.90;;;;;;5116428;27;20031;-54
2023/02/22 05:10:33;;;;;;;31.42;22.98;;;8.60;99.90;;;;;;5105007;28;20051;-54
2023/02/22 05:12:59;;;;;;;31.38;22.20;;;8.50;99.90;;;;;;5105683;28;20028;-54
2023/02/22 05:15:25;;;;;;;47.53;24.05;;;8.50;99.90;;;;;;5113843;28;20038;-54
2023/02/22 05:17:51;;;;;;;52.10;28.50;;;8.60;99.90;;;;;;5122292;27;20080;-55
2023/02/22 05:20:29;;;;;;;125.55;46.88;;;8.50;99.90;;;;;;5121722;27;20028;-54
2023/02/22 05:22:57;;;;;;;245.30;66.60;;;8.10;99.90;;;;;;5121768;27;20417;-54
2023/02/22 05:25:23;;;;;;;176.95;55.80;;;8.30;99.90;;;;;;5125011;28;20031;-56
2023/02/22 05:27:51;;;;;;;53.70;27.95;;;8.40;99.90;;;;;;5124043;28;20050;-55
2023/02/22 05:30:19;;;;;;;40.20;24.88;;;8.40;99.90;;;;;;5122626;27;20087;-53
2023/02/22 05:32:45;;;;;;;36.78;23.95;;;8.50;99.90;;;;;;5103580;28;20043;-54
2023/02/22 05:35:12;;;;;;;46.65;25.55;;;8.50;99.90;;;;;;5117562;27;20498;-54
2023/02/22 05:37:37;;;;;;;35.42;22.35;;;8.50;99.90;;;;;;5124540;28;20063;-54
2023/02/22 05:40:03;;;;;;;30.90;21.88;;;8.60;99.90;;;;;;5120122;28;20139;-54
2023/02/22 05:42:29;;;;;;;30.15;22.42;;;8.60;99.90;;;;;;5086231;28;20035;-54
2023/02/22 05:44:55;;;;;;;31.83;21.75;;;8.60;99.90;;;;;;5119864;27;20031;-54
2023/02/22 05:47:21;;;;;;;33.67;23.08;;;8.60;99.90;;;;;;5124000;28;20030;-54
2023/02/22 05:49:46;;;;;;;30.70;22.05;;;8.60;99.90;;;;;;5115913;28;20031;-54
2023/02/22 05:52:12;;;;;;;35.70;21.83;;;8.70;99.90;;;;;;5122172;28;20031;-54
2023/02/22 05:54:38;;;;;;;36.50;23.88;;;8.70;99.90;;;;;;5116492;28;20036;-54
2023/02/22 05:57:04;;;;;;;30.50;22.20;;;8.70;99.90;;;;;;5115826;28;20043;-54
2023/02/22 05:59:29;;;;;;;36.13;21.80;;;8.80;99.90;;;;;;5123197;28;20482;-53
2023/02/22 06:01:55;;;;;;;28.10;20.38;;;8.80;99.90;;;;;;5104376;28;20074;-53
2023/02/22 06:04:21;;;;;;;24.95;18.38;;;8.90;99.90;;;;;;5124228;28;20019;-53
2023/02/22 06:06:46;;;;;;;31.73;18.88;;;9.00;99.90;;;;;;5115754;28;20027;-53
2023/02/22 06:09:12;;;;;;;23.70;17.33;;;10.00;99.90;;;;;;5121960;28;20027;-54
2023/02/22 06:11:38;;;;;;;24.50;17.40;;;11.30;99.90;;;;;;5124151;27;20019;-53
2023/02/22 06:14:03;;;;;;;20.88;16.63;;;12.50;99.90;;;;;;5124640;28;20066;-53
2023/02/22 06:16:30;;;;;;;25.38;16.30;;;13.80;99.90;;;;;;5118227;28;20044;-53
2023/02/22 06:18:56;;;;;;;22.88;16.48;;;14.90;99.90;;;;;;5114063;28;20032;-53
2023/02/22 06:21:22;;;;;;;22.67;17.15;;;15.80;99.90;;;;;;5101662;28;20479;-53
2023/02/22 06:23:48;;;;;;;25.13;16.27;;;16.70;99.90;;;;;;5100596;28;20055;-53
2023/02/22 06:26:17;;;;;;;25.65;16.33;;;;;;;;;;5099093;28;20143;-53
2023/02/22 06:28:43;;;;;;;22.15;15.73;;;18.20;96.60;;;;;;5092728;28;20554;-56
2023/02/22 06:31:10;;;;;;;22.13;15.32;;;;;;;;;;5102795;28;20071;-50
2023/02/22 06:33:36;;;;;;;19.25;14.75;;;;;;;;;;5052328;28;20073;-56
2023/02/22 06:36:02;;;;;;;22.48;14.40;;;;;;;;;;5088413;28;20032;-49
2023/02/22 06:38:28;;;;;;;23.02;15.45;;;;;;;;;;5107638;28;20039;-50
2023/02/22 06:40:54;;;;;;;19.95;14.65;;;21.50;99.90;;;;;;5099447;28;20031;-50
2023/02/22 06:43:21;;;;;;;22.73;15.25;;;;;;;;;;5068119;28;20058;-55
2023/02/22 06:45:47;;;;;;;18.38;14.18;;;;;;;;;;5105647;28;20046;-53
2023/02/22 06:48:13;;;;;;;18.75;14.60;;;;;;;;;;5088192;28;20068;-52
2023/02/22 06:50:40;;;;;;;20.77;14.93;;;;;;;;;;5075744;28;20035;-57
2023/02/22 06:53:08;;;;;;;34.15;17.67;;;;;;;;;;5089593;28;20043;-60
2023/02/22 06:55:35;;;;;;;62.70;30.20;;;;;;;;;;5082046;28;20037;-54
2023/02/22 06:58:02;;;;;;;25.55;17.88;;;23.70;83.20;;;;;;5086133;27;20051;-56
2023/02/22 07:00:29;;;;;;;40.85;23.73;;;24.00;82.10;;;;;;5127128;27;20118;-57
2023/02/22 07:02:56;;;;;;;51.78;28.33;;;24.60;84.90;;;;;;5129565;27;20084;-52
2023/02/22 07:05:24;;;;;;;22.42;16.70;;;;;;;;;;5122722;27;20062;-56
2023/02/22 07:07:54;;;;;;;18.60;14.68;;;;;;;;;;5122621;27;20023;-59
2023/02/22 07:10:30;;;;;;;21.85;13.73;;;;;;;;;;5124995;27;20379;-52
2023/02/22 07:12:56;;;;;;;21.98;14.57;;;;;;;;;;5126962;27;20520;-54
2023/02/22 07:15:22;;;;;;;21.55;13.90;;;;;;;;;;5118325;27;20430;-59
2023/02/22 07:17:49;;;;;;;19.08;14.30;;;;;;;;;;5125291;27;20585;-57
2023/02/22 07:20:15;;;;;;;18.88;13.63;;;;;;;;;;5128472;27;20030;-52
2023/02/22 07:22:41;;;;;;;18.00;13.10;;;;;;;;;;5131003;27;20038;-57
2023/02/22 07:25:11;;;;;;;21.23;14.70;;;;;;;;;;5129199;27;20031;-55
2023/02/22 07:27:38;;;;;;;24.02;15.40;;;;;;;;;;5124825;27;20479;-57
2023/02/22 07:30:25;;;;;;;22.42;16.23;;;27.50;75.10;;;;;;5124734;27;20035;-59
2023/02/22 07:32:52;;;;;;;25.83;18.20;;;;;;;;;;5126935;27;20118;-56
2023/02/22 07:35:22;;;;;;;20.90;14.48;;;;;;;;;;5127723;27;20043;-55
2023/02/22 07:37:48;;;;;;;22.60;14.93;;;28.50;79.10;;;;;;5063217;27;20047;-57
2023/02/22 07:40:16;;;;;;;24.30;15.77;;;28.10;74.20;;;;;;5126441;27;20019;-58
2023/02/22 07:43:00;;;;;;;16.05;13.95;;;28.50;73.70;;;;;;5135206;27;20023;-51
2023/02/22 07:45:35;;;;;;;22.80;15.45;;;;;;;;;;5128254;27;20058;-54
2023/02/22 07:48:03;;;;;;;22.60;15.30;;;;;;;;;;5105220;27;20074;-61
2023/02/22 07:50:31;;;;;;;22.63;16.52;;;;;;;;;;5124201;27;20437;-57
2023/02/22 07:52:58;;;;;;;29.95;16.67;;;;;;;;;;5124111;27;20027;-50
2023/02/22 07:55:26;;;;;;;21.35;15.40;;;30.10;72.00;;;;;;5125314;27;20027;-52
2023/02/22 07:57:54;;;;;;;21.67;16.30;;;;;;;;;;5123755;27;20071;-53
2023/02/22 08:00:30;;;;;;;20.40;15.32;;;;;;;;;;5117273;27;20113;-53
2023/02/22 08:02:57;;;;;;;23.80;15.90;;;;;;;;;;5122941;27;20062;-52
2023/02/22 08:05:24;;;;;;;20.75;16.00;;;;;;;;;;5124076;27;20027;-53
2023/02/22 08:07:50;;;;;;;21.50;15.38;;;29.40;71.90;;;;;;5127528;27;20379;-51
2023/02/22 08:10:21;;;;;;;21.55;16.15;;;29.10;73.00;;;;;;5125086;27;20047;-54
2023/02/22 08:12:48;;;;;;;20.38;15.50;;;29.00;73.00;;;;;;5127340;27;20054;-51
2023/02/22 08:15:18;;;;;;;20.30;15.77;;;28.90;72.30;;;;;;5125610;27;20394;-54
2023/02/22 08:17:44;;;;;;;21.52;15.05;;;28.90;73.10;;;;;;5128469;27;20046;-54
2023/02/22 08:20:10;;;;;;;24.63;16.13;;;28.00;73.10;;;;;;5130162;27;20027;-55
2023/02/22 08:22:35;;;;;;;21.77;15.98;;;26.70;73.70;;;;;;5093113;27;20070;-53
2023/02/22 08:25:01;;;;;;;21.48;16.42;;;25.90;74.30;;;;;;5126065;27;20054;-54
2023/02/22 08:27:29;;;;;;;18.85;15.65;;;;;;;;;;5115647;27;20027;-52
2023/02/22 08:29:55;;;;;;;19.75;15.80;;;27.30;74.60;;;;;;5124370;27;20038;-53
2023/02/22 08:32:21;;;;;;;20.90;16.42;;;;;;;;;;5123360;27;20042;-53
2023/02/22 08:34:47;;;;;;;24.75;17.58;;;25.90;83.80;;;;;;5116502;27;20036;-52
2023/02/22 08:37:14;;;;;;;19.40;15.75;;;;;;;;;;5123670;27;20122;-53
2023/02/22 08:39:40;;;;;;;24.65;17.17;;;;;;;;;;5125401;27;20102;-53
2023/02/22 08:42:08;;;;;;;21.98;16.00;;;26.90;81.50;;;;;;5125846;27;20027;-52
2023/02/22 08:44:35;;;;;;;20.52;17.05;;;27.00;76.10;;;;;;5114345;27;20042;-53
2023/02/22 08:47:00;;;;;;;33.20;21.23;;;26.60;75.40;;;;;;5123077;27;20022;-52
2023/02/22 08:49:26;;;;;;;28.35;20.83;;;26.50;76.10;;;;;;5131354;27;20086;-53
2023/02/22 08:51:52;;;;;;;21.27;16.98;;;;;;;;;;5124235;27;20074;-52
2023/02/22 08:54:18;;;;;;;21.42;16.92;;;;;;;;;;5123556;27;20024;-52
2023/02/22 08:56:44;;;;;;;20.08;16.50;;;26.30;76.10;;;;;;5124010;27;20399;-53
2023/02/22 08:59:10;;;;;;;21.27;18.17;;;;;;;;;;5114719;27;20027;-52
2023/02/22 09:01:36;;;;;;;23.17;17.40;;;27.30;75.10;;;;;;5124252;27;20067;-53
2023/02/22 09:04:02;;;;;;;25.63;17.85;;;27.20;75.80;;;;;;5125025;27;20051;-51
2023/02/22 09:06:28;;;;;;;26.15;21.65;;;27.50;92.60;;;;;;5125066;27;20034;-53
2023/02/22 09:08:54;;;;;;;22.90;17.50;;;27.00;78.20;;;;;;5124975;27;20046;-51
2023/02/22 09:11:20;;;;;;;27.77;24.27;;;26.50;76.00;;;;;;5123082;27;20027;-53
2023/02/22 09:13:46;;;;;;;20.40;17.90;;;26.60;76.60;;;;;;5115967;27;20023;-52
2023/02/22 09:16:12;;;;;;;20.30;17.63;;;26.60;75.30;;;;;;5124926;27;20103;-51
2023/02/22 09:18:38;;;;;;;21.55;18.35;;;;;;;;;;5116018;28;20058;-53
2023/02/22 09:21:04;;;;;;;24.02;17.30;;;;;;;;;;5125080;28;20039;-51
2023/02/22 09:23:31;;;;;;;21.55;16.45;;;;;;;;;;5122254;28;20395;-52
2023/02/22 09:25:58;;;;;;;21.65;17.55;;;;;;;;;;5124768;28;20027;-52
2023/02/22 09:28:25;;;;;;;21.45;17.83;;;;;;;;;;5122868;28;20031;-54
2023/02/22 09:30:52;;;;;;;24.13;16.85;;;;;;;;;;5106807;28;20031;-54
2023/02/22 09:33:19;;;;;;;21.88;16.90;;;27.80;74.10;;;;;;5107562;28;20036;-53
2023/02/22 09:35:48;;;;;;;21.85;16.98;;;28.30;75.50;;;;;;5125881;28;20058;-53
2023/02/22 09:38:17;;;;;;;21.83;18.00;;;27.90;74.60;;;;;;5123758;27;20051;-53
2023/02/22 09:40:48;;;;;;;31.58;18.25;;;27.40;75.70;;;;;;5128275;28;20136;-52
2023/02/22 09:43:32;;;;;;;19.33;17.02;;;27.60;74.60;;;;;;5129055;28;20031;-53
2023/02/22 09:46:10;;;;;;;22.08;17.67;;;;;;;;;;5122491;28;20027;-55
2023/02/22 09:48:45;;;;;;;22.05;18.30;;;28.90;73.30;;;;;;5123937;28;20036;-55
2023/02/22 09:51:16;;;;;;;20.30;17.52;;;28.80;74.20;;;;;;5127757;28;20031;-55
2023/02/22 09:53:45;;;;;;;25.05;17.45;;;28.60;74.00;;;;;;5122542;28;20028;-54
2023/02/22 09:56:16;;;;;;;20.55;16.33;;;29.30;73.70;;;;;;5122132;28;20031;-54
2023/02/22 09:58:55;;;;;;;20.42;16.80;;;29.40;73.20;;;;;;5122391;28;20355;-54
2023/02/22 10:01:35;;;;;;;30.42;18.55;;;29.50;73.10;;;;;;5128572;27;20063;-52
2023/02/22 10:04:22;;;;;;;17.50;15.35;;;29.70;74.20;;;;;;5120316;28;20443;-53
2023/02/22 10:07:17;;;;;;;20.10;15.40;;;29.80;72.10;;;;;;5118647;28;20034;-55
2023/02/22 10:09:47;;;;;;;18.75;15.90;;;30.00;72.60;;;;;;5129542;27;20026;-54
2023/02/22 10:12:25;;;;;;;20.13;15.18;;;;;;;;;;5128008;27;20046;-55
2023/02/22 10:14:57;;;;;;;17.17;14.88;;;;;;;;;;5118661;27;20031;-53
2023/02/22 10:17:23;;;;;;;24.80;17.77;;;;;;;;;;5128014;27;20031;-53
2023/02/22 10:20:08;;;;;;;15.95;13.70;;;;;;;;;;5128648;27;20031;-54
2023/02/22 10:22:42;;;;;;;14.82;13.20;;;;;;;;;;5119380;27;20038;-54
2023/02/22 10:25:16;;;;;;;14.23;11.77;;;;;;;;;;5133523;27;20043;-55
2023/02/22 10:27:46;;;;;;;19.05;10.35;;;;;;;;;;5130858;27;20483;-54
2023/02/22 10:30:15;;;;;;;9.45;8.52;;;;;;;;;;5107936;28;20040;-54
2023/02/22 10:32:44;;;;;;;54.22;34.97;;;;;;;;;;5073355;28;20036;-55
2023/02/22 10:35:20;;;;;;;13.65;10.32;;;;;;;;;;5106649;28;20081;-56
2023/02/22 10:37:47;;;;;;;20.55;12.73;;;;;;;;;;5102931;28;20040;-56
2023/02/22 10:40:30;;;;;;;19.60;16.40;;;;;;;;;;5105298;28;20057;-54
2023/02/22 10:42:57;;;;;;;17.23;14.30;;;;;;;;;;5102998;28;20035;-54
2023/02/22 10:45:28;;;;;;;12.70;10.30;;;;;;;;;;5095210;28;20044;-54
2023/02/22 10:47:57;;;;;;;18.92;10.30;;;;;;;;;;5103898;28;20093;-55
2023/02/22 10:50:24;;;;;;;10.15;8.75;;;;;;;;;;5104677;28;20032;-56
2023/02/22 10:52:50;;;;;;;10.25;8.38;;;;;;;;;;5104981;28;20108;-56
2023/02/22 10:55:16;;;;;;;14.13;8.73;;;;;;;;;;5065974;28;20073;-55
2023/02/22 10:57:47;;;;;;;13.43;8.60;;;;;;;;;;5100670;28;20059;-55
2023/02/22 11:00:18;;;;;;;9.63;7.85;;;;;;;;;;5105158;27;20081;-54
2023/02/22 11:02:55;;;;;;;14.43;8.90;;;;;;;;;;5120023;27;20133;-53
2023/02/22 11:05:29;;;;;;;8.35;7.50;;;;;;;;;;5121355;27;20445;-54
2023/02/22 11:08:15;;;;;;;9.20;7.38;;;;;;;;;;5125353;27;20046;-53
2023/02/22 11:10:42;;;;;;;8.90;8.00;;;;;;;;;;5126430;27;20103;-55
2023/02/22 11:13:27;;;;;;;8.40;7.50;;;;;;;;;;5124939;27;20773;-55
2023/02/22 11:15:54;;;;;;;10.98;7.40;;;;;;;;;;5118382;27;20023;-55
2023/02/22 11:18:28;;;;;;;7.55;6.43;;;;;;;;;;5124067;27;20065;-56
2023/02/22 11:21:21;;;;;;;8.55;6.68;;;;;;;;;;5125812;27;20027;-54
2023/02/22 11:23:49;;;;;;;5.85;3.65;;;28.30;69.10;;;;;;5123514;27;20110;-56
2023/02/22 11:26:19;;;;;;;6.78;4.32;;;27.90;69.80;;;;;;5126799;27;20085;-54
2023/02/22 11:28:54;;;;;;;3.60;2.72;;;28.40;70.20;;;;;;5122897;27;20023;-53
2023/02/22 11:31:22;;;;;;;5.60;3.53;;;28.60;69.20;;;;;;5124766;27;20051;-53
2023/02/22 11:33:59;;;;;;;6.10;3.65;;;28.90;69.20;;;;;;5119877;27;20112;-49
2023/02/22 11:36:42;;;;;;;5.95;3.88;;;29.00;70.00;;;;;;5128134;27;20031;-54
2023/02/22 11:39:32;;;;;;;6.60;4.53;;;29.10;69.60;;;;;;5126278;27;20039;-58
2023/02/22 11:42:23;;;;;;;8.10;5.50;;;28.20;69.80;;;;;;5124355;27;20031;-52
2023/02/22 11:45:20;;;;;;;7.72;5.43;;;28.70;70.20;;;;;;5127523;27;20034;-56
2023/02/22 11:48:06;;;;;;;6.88;5.18;;;28.20;70.30;;;;;;5080990;28;20052;-55
2023/02/22 11:50:50;;;;;;;7.68;5.32;;;28.00;69.40;;;;;;5086091;28;20108;-58
2023/02/22 11:54:00;;;;;;;8.60;5.97;;;28.20;70.20;;;;;;5081214;28;20083;-56
2023/02/22 11:56:43;;;;;;;7.30;5.63;;;28.10;70.50;;;;;;5076802;28;20044;-57
2023/02/22 11:59:40;;;;;;;14.00;5.43;;;28.30;70.30;;;;;;5073638;28;20516;-52
2023/02/22 12:02:40;;;;;;;10.57;5.35;;;28.30;70.40;;;;;;5072469;28;20528;-57
2023/02/22 12:05:25;;;;;;;9.65;5.60;;;28.50;71.00;;;;;;5082584;28;20040;-55
2023/02/22 12:08:19;;;;;;;9.40;6.25;;;28.00;71.20;;;;;;5085406;28;20039;-54
2023/02/22 12:11:08;;;;;;;8.68;5.30;;;27.50;70.70;;;;;;5082514;28;20036;-57
2023/02/22 12:14:10;;;;;;;13.25;6.47;;;27.50;71.60;;;;;;5079897;28;20047;-54
2023/02/22 12:16:44;;;;;;;10.20;5.35;;;;;;;;;;5088871;28;20064;-59
2023/02/22 12:19:15;;;;;;;6.70;4.93;;;;;;;;;;5086856;28;20048;-56
2023/02/22 12:21:44;;;;;;;8.88;5.63;;;;;;;;;;5087457;28;20476;-56
2023/02/22 12:24:17;;;;;;;6.45;4.75;;;26.70;92.20;;;;;;5095015;27;20042;-50
2023/02/22 12:26:46;;;;;;;6.22;4.60;;;26.90;74.80;;;;;;5105538;27;20047;-53
2023/02/22 12:29:25;;;;;;;9.48;4.90;;;27.00;70.80;;;;;;5127649;27;20110;-54
2023/02/22 12:32:40;;;;;;;8.23;5.10;;;26.70;70.20;;;;;;5110207;27;20095;-53
2023/02/22 12:35:15;;;;;;;8.60;6.05;;;26.80;71.60;;;;;;5023635;28;20184;-51
2023/02/22 12:37:41;;;;;;;9.75;5.65;;;26.30;71.80;;;;;;5025346;28;20045;-55
2023/02/22 12:40:12;;;;;;;20.00;5.45;;;;;;;;;;5025226;28;20140;-51
2023/02/22 12:42:47;;;;;;;8.80;5.88;;;26.00;88.40;;;;;;5026600;28;20029;-58
2023/02/22 12:45:44;;;;;;;8.82;5.72;;;26.00;71.60;;;;;;5026480;28;20044;-52
2023/02/22 12:48:34;;;;;;;6.50;4.82;;;25.70;72.20;;;;;;5008798;28;20038;-49
2023/02/22 12:51:10;;;;;;;5.97;4.93;;;25.90;71.10;;;;;;5010803;28;20381;-52
2023/02/22 12:53:42;;;;;;;8.00;5.18;;;25.80;72.00;;;;;;5010739;28;20397;-50
2023/02/22 12:56:27;;;;;;;7.72;5.32;;;25.20;71.40;;;;;;5010899;28;20466;-50
2023/02/22 12:59:01;;;;;;;6.75;5.18;;;25.40;73.00;;;;;;5010883;28;20050;-50
2023/02/22 13:01:36;;;;;;;5.63;4.70;;;25.90;72.20;;;;;;5010396;28;20053;-52
2023/02/22 13:04:03;;;;;;;10.10;5.68;;;26.10;72.50;;;;;;5010764;28;20129;-50
2023/02/22 13:06:46;;;;;;;7.80;5.80;;;26.00;72.00;;;;;;5010391;28;20157;-50
2023/02/22 13:09:14;;;;;;;7.35;5.43;;;25.90;72.10;;;;;;5010646;28;20029;-50
2023/02/22 13:11:59;;;;;;;9.73;5.75;;;25.60;72.20;;;;;;5016143;28;20103;-51
2023/02/22 13:14:24;;;;;;;9.55;5.28;;;25.40;71.90;;;;;;5018597;28;20198;-50
2023/02/22 13:16:59;;;;;;;7.30;5.75;;;25.60;73.00;;;;;;5029437;28;20659;-50
2023/02/22 13:19:40;;;;;;;8.73;6.25;;;25.30;72.50;;;;;;5029578;28;20397;-50
2023/02/22 13:22:12;;;;;;;10.43;6.97;;;;;;;;;;5044676;28;20124;-51